sensor_id;sensor_type;location;lat;lon;timestamp;P1;durP1;ratioP1;P2;durP2;ratioP2
57055;SDS011;42945;51.718;5.324;2023-03-07T00:03:23;13.20;;;7.63;;
57055;SDS011;42945;51.718;5.324;2023-03-07T00:09:11;13.65;;;6.22;;
57055;SDS011;42945;51.718;5.324;2023-03-07T00:14:59;12.10;;;5.43;;
57055;SDS011;42945;51.718;5.324;2023-03-07T00:20:55;8.70;;;4.55;;
57055;SDS011;42945;51.718;5.324;2023-03-07T00:26:46;7.55;;;3.67;;
57055;SDS011;42945;51.718;5.324;2023-03-07T00:32:34;6.82;;;3.45;;
57055;SDS011;42945;51.718;5.324;2023-03-07T00:38:23;6.38;;;3.22;;
57055;SDS011;42945;51.718;5.324;2023-03-07T00:44:12;5.90;;;3.20;;
57055;SDS011;42945;51.718;5.324;2023-03-07T00:50:00;6.60;;;2.90;;
57055;SDS011;42945;51.718;5.324;2023-03-07T00:55:54;5.00;;;2.28;;
57055;SDS011;42945;51.718;5.324;2023-03-07T01:05:39;6.38;;;2.50;;
57055;SDS011;42945;51.718;5.324;2023-03-07T01:11:28;4.25;;;2.15;;
57055;SDS011;42945;51.718;5.324;2023-03-07T01:17:18;5.93;;;2.60;;
57055;SDS011;42945;51.718;5.324;2023-03-07T01:23:05;5.40;;;2.75;;
57055;SDS011;42945;51.718;5.324;2023-03-07T01:28:54;5.13;;;2.72;;
57055;SDS011;42945;51.718;5.324;2023-03-07T01:34:45;7.70;;;4.20;;
57055;SDS011;42945;51.718;5.324;2023-03-07T01:40:33;10.00;;;6.22;;
57055;SDS011;42945;51.718;5.324;2023-03-07T01:46:26;13.30;;;8.77;;
57055;SDS011;42945;51.718;5.324;2023-03-07T01:52:20;15.30;;;9.60;;
57055;SDS011;42945;51.718;5.324;2023-03-07T01:58:15;16.58;;;10.18;;
57055;SDS011;42945;51.718;5.324;2023-03-07T02:08:08;23.10;;;13.23;;
57055;SDS011;42945;51.718;5.324;2023-03-07T02:14:00;22.02;;;13.70;;
57055;SDS011;42945;51.718;5.324;2023-03-07T02:19:51;23.33;;;13.77;;
57055;SDS011;42945;51.718;5.324;2023-03-07T02:26:10;23.95;;;13.68;;
57055;SDS011;42945;51.718;5.324;2023-03-07T02:32:14;27.08;;;14.85;;
57055;SDS011;42945;51.718;5.324;2023-03-07T02:38:02;26.35;;;13.43;;
57055;SDS011;42945;51.718;5.324;2023-03-07T02:43:52;25.63;;;14.43;;
57055;SDS011;42945;51.718;5.324;2023-03-07T02:49:39;28.58;;;15.40;;
57055;SDS011;42945;51.718;5.324;2023-03-07T02:55:27;23.13;;;13.88;;
57055;SDS011;42945;51.718;5.324;2023-03-07T03:01:15;26.10;;;13.57;;
57055;SDS011;42945;51.718;5.324;2023-03-07T03:11:02;29.95;;;12.00;;
57055;SDS011;42945;51.718;5.324;2023-03-07T03:16:54;27.88;;;13.40;;
57055;SDS011;42945;51.718;5.324;2023-03-07T03:22:43;25.70;;;12.80;;
57055;SDS011;42945;51.718;5.324;2023-03-07T03:28:30;17.05;;;9.70;;
57055;SDS011;42945;51.718;5.324;2023-03-07T03:34:19;16.13;;;7.70;;
57055;SDS011;42945;51.718;5.324;2023-03-07T03:40:06;15.48;;;8.27;;
57055;SDS011;42945;51.718;5.324;2023-03-07T03:46:00;15.10;;;6.38;;
57055;SDS011;42945;51.718;5.324;2023-03-07T03:51:50;16.35;;;7.88;;
57055;SDS011;42945;51.718;5.324;2023-03-07T03:57:38;14.73;;;7.60;;
57055;SDS011;42945;51.718;5.324;2023-03-07T04:03:26;13.77;;;7.25;;
57055;SDS011;42945;51.718;5.324;2023-03-07T04:13:11;15.23;;;6.95;;
57055;SDS011;42945;51.718;5.324;2023-03-07T04:18:59;13.85;;;6.55;;
57055;SDS011;42945;51.718;5.324;2023-03-07T04:24:46;12.55;;;5.95;;
57055;SDS011;42945;51.718;5.324;2023-03-07T04:30:34;11.40;;;6.30;;
57055;SDS011;42945;51.718;5.324;2023-03-07T04:36:22;11.25;;;5.95;;
57055;SDS011;42945;51.718;5.324;2023-03-07T04:42:11;11.60;;;5.22;;
57055;SDS011;42945;51.718;5.324;2023-03-07T04:47:59;9.88;;;5.20;;
57055;SDS011;42945;51.718;5.324;2023-03-07T04:53:47;9.95;;;5.68;;
57055;SDS011;42945;51.718;5.324;2023-03-07T04:59:36;10.35;;;4.68;;
57055;SDS011;42945;51.718;5.324;2023-03-07T05:05:25;9.38;;;3.97;;
57055;SDS011;42945;51.718;5.324;2023-03-07T05:15:08;13.32;;;5.20;;
57055;SDS011;42945;51.718;5.324;2023-03-07T05:20:56;11.38;;;4.68;;
57055;SDS011;42945;51.718;5.324;2023-03-07T05:26:45;9.98;;;4.25;;
57055;SDS011;42945;51.718;5.324;2023-03-07T05:32:32;8.00;;;4.10;;
57055;SDS011;42945;51.718;5.324;2023-03-07T05:38:21;7.82;;;3.60;;
57055;SDS011;42945;51.718;5.324;2023-03-07T05:44:09;11.80;;;4.03;;
57055;SDS011;42945;51.718;5.324;2023-03-07T05:49:57;11.68;;;4.63;;
57055;SDS011;42945;51.718;5.324;2023-03-07T05:55:45;12.68;;;4.20;;
57055;SDS011;42945;51.718;5.324;2023-03-07T06:01:33;11.30;;;4.93;;
57055;SDS011;42945;51.718;5.324;2023-03-07T06:07:21;11.05;;;4.05;;
57055;SDS011;42945;51.718;5.324;2023-03-07T06:13:11;10.65;;;4.68;;
57055;SDS011;42945;51.718;5.324;2023-03-07T06:19:03;10.65;;;4.65;;
57055;SDS011;42945;51.718;5.324;2023-03-07T06:24:51;16.67;;;5.05;;
57055;SDS011;42945;51.718;5.324;2023-03-07T06:30:38;9.68;;;5.50;;
57055;SDS011;42945;51.718;5.324;2023-03-07T06:36:27;15.93;;;6.53;;
57055;SDS011;42945;51.718;5.324;2023-03-07T06:42:15;15.32;;;7.53;;
57055;SDS011;42945;51.718;5.324;2023-03-07T06:48:03;16.05;;;7.97;;
57055;SDS011;42945;51.718;5.324;2023-03-07T06:53:51;14.30;;;7.75;;
57055;SDS011;42945;51.718;5.324;2023-03-07T06:59:40;12.82;;;7.35;;
57055;SDS011;42945;51.718;5.324;2023-03-07T07:05:28;20.30;;;11.48;;
57055;SDS011;42945;51.718;5.324;2023-03-07T07:11:17;14.07;;;7.05;;
57055;SDS011;42945;51.718;5.324;2023-03-07T07:17:04;10.20;;;4.10;;
57055;SDS011;42945;51.718;5.324;2023-03-07T07:22:52;8.32;;;4.10;;
57055;SDS011;42945;51.718;5.324;2023-03-07T07:28:40;4.35;;;2.42;;
57055;SDS011;42945;51.718;5.324;2023-03-07T07:34:27;7.82;;;1.80;;
57055;SDS011;42945;51.718;5.324;2023-03-07T07:40:15;6.35;;;2.25;;
57055;SDS011;42945;51.718;5.324;2023-03-07T07:46:03;5.80;;;2.60;;
57055;SDS011;42945;51.718;5.324;2023-03-07T07:51:51;6.35;;;2.88;;
57055;SDS011;42945;51.718;5.324;2023-03-07T07:57:40;4.72;;;2.20;;
57055;SDS011;42945;51.718;5.324;2023-03-07T08:03:29;9.10;;;2.67;;
57055;SDS011;42945;51.718;5.324;2023-03-07T08:09:17;4.38;;;2.30;;
57055;SDS011;42945;51.718;5.324;2023-03-07T08:18:41;5.32;;;2.28;;
57055;SDS011;42945;51.718;5.324;2023-03-07T08:24:30;5.03;;;2.25;;
57055;SDS011;42945;51.718;5.324;2023-03-07T08:30:22;5.75;;;2.55;;
57055;SDS011;42945;51.718;5.324;2023-03-07T08:36:10;10.48;;;2.90;;
57055;SDS011;42945;51.718;5.324;2023-03-07T08:41:58;6.78;;;2.90;;
57055;SDS011;42945;51.718;5.324;2023-03-07T08:47:46;5.20;;;2.58;;
57055;SDS011;42945;51.718;5.324;2023-03-07T08:53:36;10.40;;;3.80;;
57055;SDS011;42945;51.718;5.324;2023-03-07T08:59:25;10.98;;;4.90;;
57055;SDS011;42945;51.718;5.324;2023-03-07T09:05:14;18.77;;;6.72;;
57055;SDS011;42945;51.718;5.324;2023-03-07T09:11:01;12.07;;;5.20;;
57055;SDS011;42945;51.718;5.324;2023-03-07T09:16:51;7.07;;;3.63;;
57055;SDS011;42945;51.718;5.324;2023-03-07T09:22:39;11.50;;;3.55;;
57055;SDS011;42945;51.718;5.324;2023-03-07T09:28:28;8.77;;;3.80;;
57055;SDS011;42945;51.718;5.324;2023-03-07T09:34:16;8.20;;;3.72;;
57055;SDS011;42945;51.718;5.324;2023-03-07T09:40:04;6.78;;;3.15;;
57055;SDS011;42945;51.718;5.324;2023-03-07T09:51:50;7.32;;;2.55;;
57055;SDS011;42945;51.718;5.324;2023-03-07T09:57:49;5.65;;;2.78;;
57055;SDS011;42945;51.718;5.324;2023-03-07T10:09:35;4.63;;;2.10;;
57055;SDS011;42945;51.718;5.324;2023-03-07T10:21:47;4.32;;;2.30;;
57055;SDS011;42945;51.718;5.324;2023-03-07T10:27:45;4.90;;;2.88;;
57055;SDS011;42945;51.718;5.324;2023-03-07T10:33:33;5.35;;;2.75;;
57055;SDS011;42945;51.718;5.324;2023-03-07T10:39:25;6.82;;;3.10;;
57055;SDS011;42945;51.718;5.324;2023-03-07T10:45:19;5.65;;;3.33;;
57055;SDS011;42945;51.718;5.324;2023-03-07T10:57:15;2.95;;;1.77;;
57055;SDS011;42945;51.718;5.324;2023-03-07T11:03:10;4.18;;;2.22;;
57055;SDS011;42945;51.718;5.324;2023-03-07T11:09:26;3.75;;;2.30;;
57055;SDS011;42945;51.718;5.324;2023-03-07T11:15:20;6.43;;;2.45;;
57055;SDS011;42945;51.718;5.324;2023-03-07T11:21:33;4.18;;;2.30;;
57055;SDS011;42945;51.718;5.324;2023-03-07T11:27:24;3.75;;;2.25;;
57055;SDS011;42945;51.718;5.324;2023-03-07T11:33:18;4.28;;;2.50;;
57055;SDS011;42945;51.718;5.324;2023-03-07T11:45:33;6.50;;;3.00;;
57055;SDS011;42945;51.718;5.324;2023-03-07T12:03:51;8.18;;;3.22;;
57055;SDS011;42945;51.718;5.324;2023-03-07T12:10:03;6.03;;;3.47;;
57055;SDS011;42945;51.718;5.324;2023-03-07T12:22:40;9.63;;;5.28;;
57055;SDS011;42945;51.718;5.324;2023-03-07T12:28:31;12.90;;;7.90;;
57055;SDS011;42945;51.718;5.324;2023-03-07T12:34:30;13.65;;;8.13;;
57055;SDS011;42945;51.718;5.324;2023-03-07T12:40:36;18.48;;;9.82;;
57055;SDS011;42945;51.718;5.324;2023-03-07T12:52:39;20.88;;;10.98;;
57055;SDS011;42945;51.718;5.324;2023-03-07T13:04:35;23.00;;;11.80;;
57055;SDS011;42945;51.718;5.324;2023-03-07T13:10:26;27.38;;;14.50;;
57055;SDS011;42945;51.718;5.324;2023-03-07T13:28:33;4.47;;;2.53;;
57055;SDS011;42945;51.718;5.324;2023-03-07T13:34:43;5.20;;;2.88;;
57055;SDS011;42945;51.718;5.324;2023-03-07T13:52:36;6.18;;;3.47;;
57055;SDS011;42945;51.718;5.324;2023-03-07T13:58:27;6.53;;;3.28;;
57055;SDS011;42945;51.718;5.324;2023-03-07T14:04:25;3.28;;;1.52;;
57055;SDS011;42945;51.718;5.324;2023-03-07T14:10:27;3.70;;;1.13;;
57055;SDS011;42945;51.718;5.324;2023-03-07T14:22:57;4.22;;;1.10;;
57055;SDS011;42945;51.718;5.324;2023-03-07T14:28:59;1.40;;;1.05;;
57055;SDS011;42945;51.718;5.324;2023-03-07T14:34:48;6.15;;;3.08;;
57055;SDS011;42945;51.718;5.324;2023-03-07T14:40:54;6.75;;;1.52;;
57055;SDS011;42945;51.718;5.324;2023-03-07T14:53:17;2.85;;;1.67;;
57055;SDS011;42945;51.718;5.324;2023-03-07T14:59:11;2.65;;;1.45;;
57055;SDS011;42945;51.718;5.324;2023-03-07T15:05:00;3.25;;;1.63;;
57055;SDS011;42945;51.718;5.324;2023-03-07T15:10:55;3.90;;;2.00;;
57055;SDS011;42945;51.718;5.324;2023-03-07T15:16:55;2.45;;;1.60;;
57055;SDS011;42945;51.718;5.324;2023-03-07T15:22:49;2.08;;;1.38;;
57055;SDS011;42945;51.718;5.324;2023-03-07T15:29:06;5.60;;;1.90;;
57055;SDS011;42945;51.718;5.324;2023-03-07T15:35:02;2.92;;;1.70;;
57055;SDS011;42945;51.718;5.324;2023-03-07T15:41:01;6.65;;;1.73;;
57055;SDS011;42945;51.718;5.324;2023-03-07T15:46:50;7.45;;;1.98;;
57055;SDS011;42945;51.718;5.324;2023-03-07T15:52:39;2.47;;;1.38;;
57055;SDS011;42945;51.718;5.324;2023-03-07T15:58:28;3.33;;;1.60;;
57055;SDS011;42945;51.718;5.324;2023-03-07T16:04:36;3.20;;;1.42;;
57055;SDS011;42945;51.718;5.324;2023-03-07T16:10:30;2.97;;;1.00;;
57055;SDS011;42945;51.718;5.324;2023-03-07T16:16:19;5.82;;;1.40;;
57055;SDS011;42945;51.718;5.324;2023-03-07T16:22:10;2.35;;;1.15;;
57055;SDS011;42945;51.718;5.324;2023-03-07T16:28:01;4.90;;;1.83;;
57055;SDS011;42945;51.718;5.324;2023-03-07T16:33:50;3.67;;;1.08;;
57055;SDS011;42945;51.718;5.324;2023-03-07T16:39:38;3.72;;;1.13;;
57055;SDS011;42945;51.718;5.324;2023-03-07T16:45:29;2.38;;;0.43;;
57055;SDS011;42945;51.718;5.324;2023-03-07T16:51:19;2.40;;;1.08;;
57055;SDS011;42945;51.718;5.324;2023-03-07T16:57:10;3.70;;;1.00;;
57055;SDS011;42945;51.718;5.324;2023-03-07T17:03:01;3.25;;;0.98;;
57055;SDS011;42945;51.718;5.324;2023-03-07T17:08:50;4.45;;;1.42;;
57055;SDS011;42945;51.718;5.324;2023-03-07T17:14:39;3.72;;;1.08;;
57055;SDS011;42945;51.718;5.324;2023-03-07T17:24:15;7.75;;;2.40;;
57055;SDS011;42945;51.718;5.324;2023-03-07T17:30:03;5.20;;;1.58;;
57055;SDS011;42945;51.718;5.324;2023-03-07T17:35:52;7.45;;;2.40;;
57055;SDS011;42945;51.718;5.324;2023-03-07T17:41:43;5.60;;;2.58;;
57055;SDS011;42945;51.718;5.324;2023-03-07T17:47:33;9.48;;;2.50;;
57055;SDS011;42945;51.718;5.324;2023-03-07T17:53:21;5.25;;;3.20;;
57055;SDS011;42945;51.718;5.324;2023-03-07T17:59:09;6.55;;;2.90;;
57055;SDS011;42945;51.718;5.324;2023-03-07T18:04:58;7.55;;;2.72;;
57055;SDS011;42945;51.718;5.324;2023-03-07T18:10:47;9.05;;;3.53;;
57055;SDS011;42945;51.718;5.324;2023-03-07T18:16:35;11.85;;;3.95;;
57055;SDS011;42945;51.718;5.324;2023-03-07T18:26:00;9.10;;;5.00;;
57055;SDS011;42945;51.718;5.324;2023-03-07T18:32:00;14.93;;;6.05;;
57055;SDS011;42945;51.718;5.324;2023-03-07T18:37:49;17.23;;;5.85;;
57055;SDS011;42945;51.718;5.324;2023-03-07T18:43:36;12.77;;;5.70;;
57055;SDS011;42945;51.718;5.324;2023-03-07T18:49:25;8.15;;;3.17;;
57055;SDS011;42945;51.718;5.324;2023-03-07T18:55:13;0.65;;;0.50;;
57055;SDS011;42945;51.718;5.324;2023-03-07T19:07:03;2.85;;;1.52;;
57055;SDS011;42945;51.718;5.324;2023-03-07T19:12:51;2.25;;;1.63;;
57055;SDS011;42945;51.718;5.324;2023-03-07T19:18:39;9.82;;;2.60;;
57055;SDS011;42945;51.718;5.324;2023-03-07T19:28:18;7.05;;;3.78;;
57055;SDS011;42945;51.718;5.324;2023-03-07T19:34:08;8.02;;;5.68;;
57055;SDS011;42945;51.718;5.324;2023-03-07T19:39:58;10.90;;;7.63;;
57055;SDS011;42945;51.718;5.324;2023-03-07T19:45:46;15.02;;;8.95;;
57055;SDS011;42945;51.718;5.324;2023-03-07T19:51:36;17.17;;;9.73;;
57055;SDS011;42945;51.718;5.324;2023-03-07T19:57:24;17.30;;;10.75;;
57055;SDS011;42945;51.718;5.324;2023-03-07T20:03:16;29.50;;;15.80;;
57055;SDS011;42945;51.718;5.324;2023-03-07T20:09:07;19.85;;;11.40;;
57055;SDS011;42945;51.718;5.324;2023-03-07T20:14:57;25.98;;;12.30;;
57055;SDS011;42945;51.718;5.324;2023-03-07T20:20:45;24.67;;;12.95;;
57055;SDS011;42945;51.718;5.324;2023-03-07T20:30:27;26.52;;;13.32;;
57055;SDS011;42945;51.718;5.324;2023-03-07T20:42:10;38.95;;;18.55;;
57055;SDS011;42945;51.718;5.324;2023-03-07T20:47:58;38.05;;;17.50;;
57055;SDS011;42945;51.718;5.324;2023-03-07T20:53:48;30.30;;;14.18;;
57055;SDS011;42945;51.718;5.324;2023-03-07T20:59:38;27.85;;;12.07;;
57055;SDS011;42945;51.718;5.324;2023-03-07T21:05:27;31.80;;;12.27;;
57055;SDS011;42945;51.718;5.324;2023-03-07T21:11:17;22.15;;;9.95;;
57055;SDS011;42945;51.718;5.324;2023-03-07T21:17:07;19.67;;;9.73;;
57055;SDS011;42945;51.718;5.324;2023-03-07T21:22:56;21.67;;;10.60;;
57055;SDS011;42945;51.718;5.324;2023-03-07T21:32:37;26.75;;;10.95;;
57055;SDS011;42945;51.718;5.324;2023-03-07T21:38:25;28.63;;;12.30;;
57055;SDS011;42945;51.718;5.324;2023-03-07T21:44:14;26.27;;;12.70;;
57055;SDS011;42945;51.718;5.324;2023-03-07T21:50:02;30.33;;;12.57;;
57055;SDS011;42945;51.718;5.324;2023-03-07T21:55:51;26.60;;;11.45;;
57055;SDS011;42945;51.718;5.324;2023-03-07T22:01:40;26.95;;;13.07;;
57055;SDS011;42945;51.718;5.324;2023-03-07T22:07:28;29.45;;;12.18;;
57055;SDS011;42945;51.718;5.324;2023-03-07T22:13:15;25.10;;;11.15;;
57055;SDS011;42945;51.718;5.324;2023-03-07T22:19:03;25.23;;;10.82;;
57055;SDS011;42945;51.718;5.324;2023-03-07T22:24:51;30.45;;;12.52;;
57055;SDS011;42945;51.718;5.324;2023-03-07T22:30:39;24.02;;;10.35;;
57055;SDS011;42945;51.718;5.324;2023-03-07T22:36:27;28.13;;;12.15;;
57055;SDS011;42945;51.718;5.324;2023-03-07T22:42:15;23.63;;;10.68;;
57055;SDS011;42945;51.718;5.324;2023-03-07T22:48:03;22.98;;;9.70;;
57055;SDS011;42945;51.718;5.324;2023-03-07T22:53:52;30.75;;;10.65;;
57055;SDS011;42945;51.718;5.324;2023-03-07T22:59:40;29.33;;;11.45;;
57055;SDS011;42945;51.718;5.324;2023-03-07T23:05:29;31.30;;;11.75;;
57055;SDS011;42945;51.718;5.324;2023-03-07T23:11:19;25.98;;;11.18;;
57055;SDS011;42945;51.718;5.324;2023-03-07T23:17:08;29.90;;;10.77;;
57055;SDS011;42945;51.718;5.324;2023-03-07T23:22:56;24.95;;;9.85;;
57055;SDS011;42945;51.718;5.324;2023-03-07T23:28:44;24.15;;;10.73;;
57055;SDS011;42945;51.718;5.324;2023-03-07T23:34:34;21.60;;;9.38;;
57055;SDS011;42945;51.718;5.324;2023-03-07T23:40:24;27.45;;;10.00;;
57055;SDS011;42945;51.718;5.324;2023-03-07T23:46:11;28.15;;;11.02;;
57055;SDS011;42945;51.718;5.324;2023-03-07T23:51:59;25.35;;;11.05;;
57055;SDS011;42945;51.718;5.324;2023-03-07T23:57:46;30.65;;;10.43;;
